KD5ROK-13 Weather Reports


Display with metric or nautical units.
time (UTC)temp
F
wind
direction
speed
MPH
gust
MPH
rain 1hr
in
rain 24hr
in
rain mn
in
humidity
%
barometer
mb
20210309105840 51 355 16.0 21.0 0.00 0.00 0.00 60 1010.6
20210309103925 52 355 18.0 21.0 0.00 0.00 0.00 59 1010.6
20210309103808 52 355 18.0 21.0 0.00 0.00 0.00 59 1010.6
20210309102400 52 355 17.0 22.0 0.00 0.00 0.00 59 1010.8
20210309100815 52 355 16.0 23.0 0.00 0.00 0.00 59 1011.0
20210309095832 52 355 14.0 18.0 0.00 0.00 0.00 59 1011.3
20210309093807 52 355 18.0 23.0 0.00 0.00 0.00 58 1011.4
20210309092832 53 355 21.0 25.0 0.00 0.00 0.00 58 1011.7
20210309090808 53 355 16.0 20.0 0.00 0.00 0.00 58 1011.9
20210309090129 52 355 20.0 26.0 0.00 0.00 0.00 58 1012.1
20210309083814 53 352 17.0 24.0 0.00 0.00 0.00 57 1012.2
20210309082856 53 350 16.0 20.0 0.00 0.00 0.00 57 1012.4
20210309080807 53 350 18.0 24.0 0.00 0.00 0.00 56 1012.6
20210309075849 53 350 17.0 24.0 0.00 0.00 0.00 55 1012.9
20210309073806 54 348 16.0 18.0 0.00 0.00 0.00 55 1013.0
20210309072615 54 348 20.0 26.0 0.00 0.00 0.00 54 1013.2
20210309070807 55 349 16.0 23.0 0.00 0.00 0.00 53 1013.3
20210309070033 55 348 14.0 17.0 0.00 0.00 0.00 53 1013.1
20210309064215 56 0 0.0 0.0 0.00 0.00 0.00 51 1013.3
20210309062918 56 0 0.0 0.0 0.00 0.00 0.00 51 1013.6
20210309060808 56 347 20.0 20.0 0.00 0.00 0.00 51 1013.7
20210309053805 56 345 14.0 18.0 0.00 0.00 0.00 49 1014.1
20210309052905 57 345 15.0 18.0 0.00 0.00 0.00 47 1014.2
20210309050804 57 345 15.0 20.0 0.00 0.00 0.00 46 1014.1
20210309045844 58 345 16.0 21.0 0.00 0.00 0.00 46 1014.0
20210309043830 58 345 16.0 20.0 0.00 0.00 0.00 45 1014.2
20210309040214 59 344 15.0 21.0 0.00 0.00 0.00 42 1014.4
20210309033813 60 344 15.0 21.0 0.00 0.00 0.00 41 1014.4
20210309032739 60 344 15.0 20.0 0.00 0.00 0.00 40 1014.6
20210309030758 61 342 16.0 23.0 0.00 0.00 0.00 39 1014.3
20210309025911 61 342 13.0 18.0 0.00 0.00 0.00 39 1014.4
20210309023801 62 342 14.0 18.0 0.00 0.00 0.00 38 1014.4
20210309022859 62 342 16.0 22.0 0.00 0.00 0.00 37 1014.3
20210309020756 63 343 14.0 16.0 0.00 0.00 0.00 36 1014.3
20210309015528 64 344 15.0 21.0 0.00 0.00 0.00 35 1014.3
20210309013756 65 344 16.0 23.0 0.00 0.00 0.00 32 1014.3
20210309012808 66 346 16.0 20.0 0.00 0.00 0.00 30 1013.7
20210309010755 66 346 17.0 25.0 0.00 0.00 0.00 28 1013.6
20210309005944 68 346 15.0 22.0 0.00 0.00 0.00 26 1013.5
20210309003755 68 347 16.0 21.0 0.00 0.00 0.00 24 1013.3
20210308235838 71 355 17.0 25.0 0.00 0.00 0.00 19 1013.2
20210308232853 72 0 17.0 23.0 0.00 0.00 0.00 16 1013.6
20210308230809 71 0 15.0 20.0 0.00 0.00 0.00 16 1013.8
20210308225356 72 0 20.0 31.0 0.00 0.00 0.00 16 1014.0
20210308223748 72 5 17.0 21.0 0.00 0.00 0.00 15 1014.0
20210308222820 71 13 14.0 18.0 0.00 0.00 0.00 19 1014.3
20210308220751 70 17 20.0 24.0 0.00 0.00 0.00 21 1014.7
20210308215521 70 19 20.0 23.0 0.00 0.00 0.00 21 1015.0
20210308213748 70 14 16.0 23.0 0.00 0.00 0.00 22 1015.3
20210308212612 69 15 18.0 26.0 0.00 0.00 0.00 24 1015.4
20210308210747 68 15 21.0 28.0 0.00 0.00 0.00 24 1015.8
20210308205737 69 17 22.0 26.0 0.00 0.00 0.00 23 1015.7
20210308203744 70 11 20.0 24.0 0.00 0.00 0.00 22 1015.8
20210308202754 69 10 20.0 26.0 0.00 0.00 0.00 22 1015.9
20210308200745 68 0 15.0 24.0 0.00 0.00 0.00 24 1016.2
20210308195500 67 0 20.0 25.0 0.00 0.00 0.00 27 1016.3
20210308193746 66 0 16.0 21.0 0.00 0.00 0.00 28 1016.8
20210308192433 65 9 18.0 22.0 0.00 0.00 0.00 30 1017.1
20210308190743 63 9 15.0 21.0 0.00 0.00 0.00 34 1017.9
20210308185629 61 9 21.0 22.0 0.00 0.00 0.00 35 1018.2
20210308183746 61 9 18.0 24.0 0.00 0.00 0.00 34 1018.2
20210308182442 63 9 17.0 25.0 0.00 0.00 0.00 33 1018.5
20210308180742 62 9 17.0 21.0 0.00 0.00 0.00 34 1018.5
20210308175823 61 9 16.0 20.0 0.00 0.00 0.00 36 1018.6
20210308173741 61 9 21.0 29.0 0.00 0.00 0.00 36 1018.8
20210308172806 60 9 18.0 20.0 0.00 0.00 0.00 37 1018.9
20210308170739 59 10 21.0 24.0 0.00 0.00 0.00 37 1018.9
20210308165328 58 9 16.0 21.0 0.00 0.00 0.00 40 1019.1
20210308163737 56 9 16.0 24.0 0.00 0.00 0.00 44 1019.2
20210308162427 55 11 13.0 17.0 0.00 0.00 0.00 45 1019.5
20210308160737 55 16 12.0 12.0 0.00 0.00 0.00 46 1019.3
20210308154332 52 16 16.0 20.0 0.00 0.00 0.00 51 1019.5
20210308153737 52 16 16.0 20.0 0.00 0.00 0.00 51 1019.5
20210308152518 50 16 16.0 17.0 0.00 0.00 0.00 55 1019.6
20210308150734 48 16 16.0 25.0 0.00 0.00 0.00 57 1019.5
20210308145807 47 16 18.0 21.0 0.00 0.00 0.00 58 1019.5
20210308143734 46 16 15.0 20.0 0.00 0.00 0.00 59 1019.6
20210308142609 46 16 13.0 20.0 0.00 0.00 0.00 60 1019.5
20210308140737 45 16 17.0 20.0 0.00 0.00 0.00 60 1019.3
20210308135945 45 16 17.0 18.0 0.00 0.00 0.00 60 1019.1
20210308133748 44 16 15.0 21.0 0.00 0.00 0.00 61 1018.8
20210308132926 44 16 15.0 20.0 0.00 0.00 0.00 61 1019.1
20210308130755 44 17 15.0 18.0 0.00 0.00 0.00 61 1019.1
20210308125955 44 17 15.0 21.0 0.00 0.00 0.00 60 1019.1
20210308123730 44 17 16.0 20.0 0.00 0.00 0.00 60 1019.1
20210308123240 44 17 15.0 18.0 0.00 0.00 0.00 60 1019.0
20210308120730 44 17 18.0 25.0 0.00 0.00 0.00 59 1018.8
20210308115845 45 17 18.0 26.0 0.00 0.00 0.00 59 1018.8
20210308113732 45 17 17.0 23.0 0.00 0.00 0.00 59 1018.8
20210308112921 45 14 17.0 26.0 0.00 0.00 0.00 58 1018.8
20210308110731 45 14 16.0 21.0 0.00 0.00 0.00 58 1018.8